Airfield :
LOGIN :

Register | Disclaimer

   EN    FR    IT 

 










Legend :    VFR   Marginal VFR   IFR   Intensive IFR   Very Intensive IFR
Visi :
Ceiling :
>= 8 km
>= 3000ft
5 to 8 km
1000 to 3000 ft
1500m to 5 km
500 to 1000 ft
800 to 1500m
200 to 500 ft
< 800m
< 200 ft
Symbols :   Thunderstorms  Fog  Heavy snow  Heavy precipitations  Wind > 20 kt
SIGMETs :     Misc.  Thunderstorms  Icing  Turbulence  Mountain Waves  Volcanic Ashes






- Airport Elevation : 2302 ft


LEAB - Albacete

CURRENT METAR :
  • 171830Z 28003KT CAVOK 23/13 Q1016 NOSIG

EXPIRED METARs :
  • 171800Z 29004KT CAVOK 24/13 Q1016 NOSIG
  • 171730Z 29004KT CAVOK 25/13 Q1016 NOSIG
  • 171700Z 31005KT 280V020 CAVOK 25/13 Q1015 NOSIG
  • 171630Z 35006KT 310V030 CAVOK 26/12 Q1015 NOSIG

TAF TAF LEAB
Valid from the 17 at 18:00 until the 18 at 18:00 UTC


171700Z 1718/1818 19005KT CAVOK TX29/1814Z TN13/1806Z
PROB40
TEMPO 1720/1801 16012KT
BECMG 1807/1809 27010KT



MET'MAP, your aeronautical weather chart ! - Copyright ORBIFLY December 2007 - Disclaimer

ORBIFLY MET'MAP TEAM :

Programming & Development : Alexandra Zaïnal
Concept & original design : Baudouin d'Aumeries
Assistance for programming : Marc-Olivier Méhu
Technical & hardware support : Manuel Goepfert

Contact : metmap@orbifly.com




SOURCES & CREDITS :

   NOAA